ADDS METAR Data INFO
IDs: Format: Raw Decoded Include TAF

Data at: 1919 UTC 19 Jul 2018

KEVM 191915Z AUTO 11005KT 10SM SCT048 26/16 A2984 RMK AO2 LTG DSNT W T02590155
KEVM 191855Z AUTO 18003KT 10SM SCT048 SCT075 25/15 A2985 RMK AO2 T02490154
KEVM 191835Z AUTO 16005KT 10SM SCT048 SCT060 SCT075 25/15 A2986 RMK AO2 T02500154
KEVM 191815Z AUTO 10003KT 10SM CLR 25/15 A2986 RMK AO2 T02540149
KEVM 191755Z AUTO 12006KT 10SM SCT045 26/16 A2987 RMK AO2 T02570158 10257 20105
KEVM 191735Z AUTO 14004KT 10SM SCT043 SCT049 25/16 A2987 RMK AO2 T02500157
KEVM 191715Z AUTO 15005KT 10SM SCT043 SCT050 25/16 A2988 RMK AO2 T02490159
KEVM 191655Z AUTO 19005KT 10SM SCT041 25/16 A2988 RMK AO2 T02450159
KEVM 191635Z AUTO 17005KT 10SM BKN041 24/16 A2988 RMK AO2 T02410160
KEVM 191615Z AUTO 15006KT 10SM SCT039 24/15 A2988 RMK AO2 T02370154
KEVM 191555Z AUTO 16006KT 10SM SCT039 SCT045 24/16 A2988 RMK AO2 T02410159
KEVM 191535Z AUTO 16009KT 10SM CLR 24/16 A2988 RMK AO2 T02380160
KEVM 191515Z AUTO 14004KT 10SM CLR 23/16 A2989 RMK AO2 T02310158
KEVM 191455Z AUTO 17005KT 10SM CLR 23/16 A2990 RMK AO2 T02280157
KEVM 191435Z AUTO 18007KT 10SM CLR 22/16 A2990 RMK AO2 T02230162
KEVM 191415Z AUTO 16005KT 10SM CLR 21/16 A2990 RMK AO2 T02130156
KEVM 191355Z AUTO 14005KT 10SM CLR 20/15 A2990 RMK AO2 T02030154
KEVM 191335Z AUTO 00000KT 10SM CLR 19/15 A2991 RMK AO2 T01920150
KEVM 191315Z AUTO 00000KT 10SM CLR 18/15 A2991 RMK AO2 T01780151
KEVM 191255Z AUTO 00000KT 10SM CLR 17/15 A2991 RMK AO2 T01670148
KEVM 191235Z AUTO 07003KT 10SM CLR 16/15 A2992 RMK AO2 T01590148
KEVM 191215Z AUTO 00000KT 10SM CLR 13/13 A2993 RMK AO2 T01260125
KEVM 191155Z AUTO 00000KT 10SM CLR 11/10 A2993 RMK AO2 T01060103 10140 20098
KEVM 191135Z AUTO 00000KT 10SM CLR 11/10 A2993 RMK AO2 T01060102
KEVM 191115Z AUTO 00000KT 10SM CLR 11/10 A2993 RMK AO2 T01050102
KEVM 191055Z AUTO 00000KT 10SM CLR 10/10 A2993 RMK AO2 T01010098
KEVM 191035Z AUTO 00000KT 10SM CLR 10/10 A2994 RMK AO2 T01020100
KEVM 191015Z AUTO 00000KT 4SM BR CLR 11/10 A2995 RMK AO2 T01070104
KEVM 190955Z AUTO 00000KT 10SM CLR 10/10 A2995 RMK AO2 T01030100
KEVM 190935Z AUTO 00000KT 10SM CLR 10/10 A2996 RMK AO2 T01040102
KEVM 190915Z AUTO 00000KT 7SM CLR 11/10 A2996 RMK AO2 T01050103
KEVM 190855Z AUTO 00000KT 7SM CLR 11/11 A2997 RMK AO2 T01100107
KEVM 190835Z AUTO 00000KT 10SM CLR 11/11 A2997 RMK AO2 T01100110
KEVM 190815Z AUTO 00000KT 10SM CLR 12/11 A2997 RMK AO2 T01150113
KEVM 190755Z AUTO 00000KT 10SM CLR 12/11 A2997 RMK AO2 T01160114
KEVM 190735Z AUTO 00000KT 7SM CLR 12/12 A2998 RMK AO2 T01160115
KEVM 190715Z AUTO 00000KT 5SM BR CLR 12/12 A2998 RMK AO2 T01210118
KEVM 190655Z AUTO 00000KT 10SM CLR 12/12 A2998 RMK AO2 T01220118
KEVM 190635Z AUTO 00000KT 10SM CLR 13/13 A2998 RMK AO2 T01310127
KEVM 190615Z AUTO 00000KT 10SM CLR 14/14 A2998 RMK AO2 T01400135
KEVM 190555Z AUTO 00000KT 10SM CLR 14/14 A2999 RMK AO2 T01400135 10253 20136 402660068
KEVM 190535Z AUTO 00000KT 10SM CLR 14/13 A2999 RMK AO2 T01360131
KEVM 190515Z AUTO 00000KT 10SM CLR 15/14 A3000 RMK AO2 T01450138
KEVM 190455Z AUTO 00000KT 10SM CLR 16/14 A2999 RMK AO2 T01600143
KEVM 190435Z AUTO 00000KT 10SM CLR 16/15 A3000 RMK AO2 T01550145
KEVM 190415Z AUTO 00000KT 10SM CLR 17/15 A3000 RMK AO2 T01650146
KEVM 190355Z AUTO 20004KT 10SM CLR 18/15 A2999 RMK AO2 T01800147
KEVM 190335Z AUTO 21005KT 10SM CLR 18/15 A3000 RMK AO2 T01830147
KEVM 190315Z AUTO 20005KT 10SM CLR 19/15 A3000 RMK AO2 T01890148
KEVM 190255Z AUTO 21005KT 10SM CLR 19/15 A3000 RMK AO2 T01850150
KEVM 190235Z AUTO 21004KT 10SM CLR 18/15 A2999 RMK AO2 T01800154
KEVM 190215Z AUTO 21003KT 10SM CLR 19/16 A2999 RMK AO2 T01870155
KEVM 190155Z AUTO 00000KT 10SM CLR 19/16 A2998 RMK AO2 T01930163
KEVM 190135Z AUTO 00000KT 10SM CLR 21/16 A2999 RMK AO2 T02080160
KEVM 190115Z AUTO 20003KT 10SM CLR 22/16 A2999 RMK AO2 T02170158
KEVM 190055Z AUTO 21003KT 10SM CLR 23/16 A3000 RMK AO2 T02300158
KEVM 190035Z AUTO 22003KT 10SM CLR 24/15 A3000 RMK AO2 T02360149
KEVM 190015Z AUTO 23006KT 10SM SCT055 25/15 A3000 RMK AO2 T02470147
KEVM 182355Z AUTO 24005KT 10SM SCT055 25/15 A3001 RMK AO2 T02480148 10266 20242
KEVM 182335Z AUTO 19007KT 10SM BKN055 BKN120 26/15 A3001 RMK AO2 T02600148
KEVM 182315Z AUTO 24005KT 10SM BKN055 26/15 A3001 RMK AO2 T02640148
KEVM 182255Z AUTO 23006KT 10SM SCT055 27/15 A3002 RMK AO2 T02650147
KEVM 182235Z AUTO 22005KT 10SM SCT055 26/14 A3002 RMK AO2 T02620142
KEVM 182215Z AUTO 23006KT 10SM CLR 26/14 A3003 RMK AO2 T02600140
KEVM 182155Z AUTO 23008KT 10SM SCT055 26/14 A3003 RMK AO2 T02630142
KEVM 182135Z AUTO 00000KT 10SM CLR 26/14 A3003 RMK AO2 T02640140
KEVM 182115Z AUTO 24006KT 10SM CLR 26/14 A3004 RMK AO2 T02640142
KEVM 182055Z AUTO 19004KT 10SM SCT050 SCT120 26/14 A3005 RMK AO2 T02640140
KEVM 182035Z AUTO 24004KT 10SM CLR 26/14 A3005 RMK AO2 T02550140
KEVM 182015Z AUTO 24007KT 10SM CLR 26/14 A3005 RMK AO2 T02610143
KEVM 181955Z AUTO 26003KT 10SM CLR 26/14 A3005 RMK AO2 T02570138
KEVM 181935Z AUTO 21007KT 10SM SCT050 26/15 A3006 RMK AO2 T02580148
KEVM 181915Z AUTO 22006KT 10SM CLR 26/15 A3006 RMK AO2 T02580150
KEVM 181855Z AUTO 00000KT 10SM CLR 25/14 A3006 RMK AO2 T02510141
KEVM 181835Z AUTO 23006KT 10SM CLR 25/14 A3007 RMK AO2 T02490141
KEVM 181815Z AUTO 25005KT 10SM SCT046 25/14 A3008 RMK AO2 T02460143
KEVM 181755Z AUTO 23005KT 10SM SCT046 24/14 A3009 RMK AO2 T02440143 10246 20098
KEVM 181735Z AUTO 24005KT 10SM CLR 24/14 A3009 RMK AO2 T02390136
KEVM 181715Z AUTO 24007KT 10SM SCT040 24/15 A3010 RMK AO2 T02390148
KEVM 181655Z AUTO 20005KT 10SM CLR 24/15 A3010 RMK AO2 T02360147
KEVM 181635Z AUTO 23007KT 10SM CLR 23/14 A3011 RMK AO2 T02320144
KEVM 181615Z AUTO 23008KT 10SM CLR 23/14 A3012 RMK AO2 T02280141
KEVM 181555Z AUTO 25007KT 10SM CLR 23/14 A3012 RMK AO2 T02250136
KEVM 181535Z AUTO 23005KT 10SM CLR 22/14 A3012 RMK AO2 T02210138
KEVM 181515Z AUTO 25008KT 10SM CLR 22/14 A3012 RMK AO2 T02180142
KEVM 181455Z AUTO 25005KT 10SM CLR 22/14 A3012 RMK AO2 T02160144
KEVM 181435Z AUTO 20003KT 10SM CLR 21/15 A3013 RMK AO2 T02070146
KEVM 181415Z AUTO 00000KT 10SM CLR 19/15 A3013 RMK AO2 T01900153
KEVM 181355Z AUTO 00000KT 10SM CLR 18/15 A3013 RMK AO2 T01750146
KEVM 181335Z AUTO 00000KT 10SM CLR 16/14 A3013 RMK AO2 T01630144
KEVM 181315Z AUTO 00000KT 10SM CLR 15/14 A3014 RMK AO2 T01530141
KEVM 181255Z AUTO 00000KT 10SM CLR 14/13 A3015 RMK AO2 T01400134
KEVM 181235Z AUTO 00000KT 10SM CLR 13/13 A3015 RMK AO2 T01260125
KEVM 181215Z AUTO 00000KT 7SM SCT001 11/11 A3015 RMK AO2 T01130113
KEVM 181155Z AUTO 00000KT 1/4SM FG OVC001 10/10 A3015 RMK AO2 T00960096 10106 20068
KEVM 181135Z AUTO 00000KT M1/4SM FG OVC001 08/08 A3015 RMK AO2 T00820082
KEVM 181115Z AUTO 00000KT M1/4SM FG OVC001 08/08 A3014 RMK AO2 T00750075
KEVM 181056Z AUTO 00000KT 1/4SM FG OVC001 07/07 A3015 RMK AO2 T00700069
KEVM 181035Z AUTO 00000KT 1/4SM FG OVC001 07/07 A3014 RMK AO2 T00730072
KEVM 181015Z AUTO 00000KT 1/2SM FG OVC001 08/08 A3014 RMK AO2 T00770076
KEVM 180955Z AUTO 00000KT 3/4SM BR OVC001 08/07 A3014 RMK AO2 T00750074
KEVM 180935Z AUTO 00000KT 10SM CLR 08/08 A3013 RMK AO2 T00810079
KEVM 180915Z AUTO 00000KT 10SM CLR 08/08 A3013 RMK AO2 T00800077
KEVM 180855Z AUTO 00000KT 10SM CLR 08/08 A3013 RMK AO2 T00830080
KEVM 180835Z AUTO 00000KT 10SM CLR 09/08 A3013 RMK AO2 T00850083
KEVM 180815Z AUTO 00000KT 3SM BR CLR 08/08 A3013 RMK AO2 T00810079
KEVM 180755Z AUTO 00000KT 10SM CLR 09/09 A3013 RMK AO2 T00880086
KEVM 180735Z AUTO 00000KT 10SM CLR 09/08 A3013 RMK AO2 T00860083